Time;durP1;ratioP1;P1;durP2;ratioP2;P2;SDS_P1;SDS_P2;PMS_P1;PMS_P2;Temp;Humidity;BMP_temperature;BMP_pressure;BME280_temperature;BME280_humidity;BME280_pressure;Samples;Min_cycle;Max_cycle;Signal;HPM_P1;HPM_P2
2022/10/03 00:00:17;;;;;;;10.63;6.50;;;;;;;;;;5055719;28;20712;-93
2022/10/03 00:03:08;;;;;;;8.60;6.27;;;;;;;;;;5055358;28;20198;-94
2022/10/03 00:05:41;;;;;;;11.57;5.93;;;;;;;;;;5055394;28;20706;-93
2022/10/03 00:08:16;;;;;;;8.83;5.90;;;;;;;;;;5055417;28;20303;-93
2022/10/03 00:10:52;;;;;;;7.27;5.53;;;;;;;;;;5055635;28;20220;-93
2022/10/03 00:13:22;;;;;;;8.53;5.63;;;;;;;;;;5055278;28;20237;-93
2022/10/03 00:15:53;;;;;;;8.40;5.70;;;;;;;;;;5055852;28;20205;-94
2022/10/03 00:18:25;;;;;;;8.97;5.80;;;;;;;;;;5055416;28;20241;-93
2022/10/03 00:21:19;;;;;;;10.20;6.37;;;;;;;;;;5054950;28;20234;-85
2022/10/03 00:23:50;;;;;;;10.43;6.00;;;;;;;;;;5053540;28;20234;-86
2022/10/03 00:26:29;;;;;;;16.67;9.43;;;;;;;;;;5053899;28;20206;-86
2022/10/03 00:29:11;;;;;;;11.57;6.77;;;;;;;;;;5053187;28;20283;-85
2022/10/03 00:31:42;;;;;;;13.33;6.83;;;;;;;;;;5052793;28;20205;-85
2022/10/03 00:34:14;;;;;;;14.73;7.87;;;;;;;;;;5053446;28;20252;-85
2022/10/03 00:36:46;;;;;;;12.53;7.93;;;;;;;;;;5053978;28;20214;-85
2022/10/03 00:39:18;;;;;;;12.83;7.70;;;;;;;;;;5053095;28;20230;-85
2022/10/03 00:42:06;;;;;;;13.47;7.67;;;;;;;;;;5053902;28;20653;-85
2022/10/03 00:44:44;;;;;;;12.10;7.00;;;;;;;;;;5051416;28;20230;-85
2022/10/03 00:47:28;;;;;;;10.47;7.10;;;;;;;;;;5053996;28;20237;-84
2022/10/03 00:50:14;;;;;;;11.30;7.00;;;;;;;;;;5052906;28;20241;-85
2022/10/03 00:53:03;;;;;;;13.00;7.50;;;;;;;;;;5053151;28;20218;-85
2022/10/03 00:55:38;;;;;;;13.00;7.13;;;;;;;;;;5053734;28;20191;-85
2022/10/03 00:58:12;;;;;;;8.63;6.07;;;;;;;;;;5053136;28;20252;-85
2022/10/03 01:00:40;;;;;;;13.07;6.40;;;;;;;;;;5052930;28;20236;-86
2022/10/03 01:03:14;;;;;;;6.87;5.80;;;;;;;;;;5053181;28;20288;-85
2022/10/03 01:05:49;;;;;;;11.77;6.27;;;;;;;;;;5052998;28;20229;-86
2022/10/03 01:08:34;;;;;;;7.50;5.27;;;;;;;;;;5052708;28;20231;-85
2022/10/03 01:11:05;;;;;;;8.10;5.93;;;;;;;;;;5053264;28;20725;-85
2022/10/03 01:13:41;;;;;;;7.43;5.60;;;;;;;;;;5053025;28;20230;-85
2022/10/03 01:16:12;;;;;;;6.87;5.40;;;;;;;;;;5053284;28;20204;-85
2022/10/03 01:18:47;;;;;;;8.00;5.17;;;;;;;;;;5052533;28;20233;-85
2022/10/03 01:21:20;;;;;;;7.60;5.43;;;;;;;;;;5052500;28;20685;-85
2022/10/03 01:24:05;;;;;;;5.67;5.10;;;;;;;;;;5052564;28;20237;-85
2022/10/03 01:26:47;;;;;;;5.93;5.23;;;;;;;;;;5053057;28;20197;-85
2022/10/03 01:32:09;;;;;;;7.67;5.47;;;;;;;;;;5035012;28;20602;-85
2022/10/03 01:34:41;;;;;;;5.57;4.97;;;;;;;;;;5051143;28;20245;-85
2022/10/03 01:37:10;;;;;;;6.37;4.60;;;;;;;;;;5052458;28;20195;-84
2022/10/03 01:39:39;;;;;;;5.57;4.10;;;;;;;;;;5051643;28;20273;-85
2022/10/03 01:42:09;;;;;;;4.13;3.07;;;;;;;;;;5052798;28;20210;-85
2022/10/03 01:44:45;;;;;;;18.47;3.63;;;;;;;;;;5052036;28;20241;-85
2022/10/03 01:47:18;;;;;;;4.10;3.50;;;;;;;;;;5052576;28;20202;-84
2022/10/03 01:49:48;;;;;;;5.87;3.37;;;;;;;;;;5051796;28;20245;-84
2022/10/03 01:52:20;;;;;;;4.53;3.80;;;;;;;;;;5052460;28;20194;-84
2022/10/03 01:54:50;;;;;;;3.90;3.60;;;;;;;;;;5051881;28;20733;-83
2022/10/03 01:57:20;;;;;;;5.57;4.03;;;;;;;;;;5052097;28;20558;-83
2022/10/03 01:59:51;;;;;;;4.10;3.60;;;;;;;;;;5051596;28;20238;-84
2022/10/03 02:02:23;;;;;;;4.87;3.53;;;;;;;;;;5052505;28;20195;-82
2022/10/03 02:04:54;;;;;;;3.80;3.50;;;;;;;;;;5051674;28;20694;-85
2022/10/03 02:07:24;;;;;;;4.37;3.30;;;;;;;;;;5052487;28;20316;-85
2022/10/03 02:09:58;;;;;;;4.07;3.43;;;;;;;;;;5051378;28;20241;-84
2022/10/03 02:12:28;;;;;;;3.93;3.60;;;;;;;;;;5052426;28;20190;-85
2022/10/03 02:15:00;;;;;;;3.70;3.40;;;;;;;;;;5051587;28;20256;-85
2022/10/03 02:17:30;;;;;;;14.80;3.87;;;;;;;;;;5051337;28;20791;-85
2022/10/03 02:20:01;;;;;;;18.57;4.60;;;;;;;;;;5051455;28;20230;-84
2022/10/03 02:22:30;;;;;;;7.23;4.10;;;;;;;;;;5052278;28;20194;-84
2022/10/03 02:25:04;;;;;;;6.13;3.60;;;;;;;;;;5051539;28;20798;-84
2022/10/03 02:27:51;;;;;;;3.80;3.50;;;;;;;;;;5051338;28;20190;-85
2022/10/03 02:30:21;;;;;;;4.60;3.77;;;;;;;;;;5052003;28;20253;-84
2022/10/03 02:33:12;;;;;;;5.53;4.17;;;;;;;;;;5051795;28;20193;-84
2022/10/03 02:35:57;;;;;;;4.07;3.60;;;;;;;;;;5051730;28;20638;-84
2022/10/03 02:38:33;;;;;;;7.30;4.10;;;;;;;;;;5051352;28;20283;-84
2022/10/03 02:41:10;;;;;;;4.60;4.20;;;;;;;;;;5051722;28;20221;-84
2022/10/03 02:43:55;;;;;;;6.60;4.60;;;;;;;;;;5051356;28;20238;-84
2022/10/03 02:46:43;;;;;;;5.97;4.37;;;;;;;;;;5051544;28;20571;-84
2022/10/03 02:49:32;;;;;;;9.97;4.03;;;;;;;;;;5046099;28;20605;-84
2022/10/03 02:52:14;;;;;;;4.97;4.47;;;;;;;;;;5051954;28;20193;-84
2022/10/03 02:54:56;;;;;;;4.67;4.27;;;;;;;;;;5049560;28;20241;-84
2022/10/03 02:57:42;;;;;;;3.07;2.87;;;;;;;;;;5051648;28;20564;-84
2022/10/03 03:00:11;;;;;;;2.33;2.13;;;;;;;;;;5051182;28;20697;-84
2022/10/03 03:02:57;;;;;;;11.20;3.47;;;;;;;;;;5051236;28;20217;-85
2022/10/03 03:05:30;;;;;;;9.40;2.80;;;;;;;;;;5051594;28;20254;-84
2022/10/03 03:08:16;;;;;;;9.97;3.03;;;;;;;;;;5050798;28;20243;-84
2022/10/03 03:10:59;;;;;;;22.33;5.60;;;;;;;;;;5051303;28;20225;-84
2022/10/03 03:13:41;;;;;;;20.00;7.00;;;;;;;;;;5050997;28;20764;-84
2022/10/03 03:16:20;;;;;;;17.43;3.80;;;;;;;;;;5049324;28;20201;-84
2022/10/03 03:18:52;;;;;;;3.40;3.20;;;;;;;;;;5050767;28;20237;-85
2022/10/03 03:21:27;;;;;;;3.57;3.27;;;;;;;;;;5051443;28;20721;-84
2022/10/03 03:24:09;;;;;;;4.17;3.10;;;;;;;;;;5050831;28;20706;-84
2022/10/03 03:26:52;;;;;;;9.77;3.30;;;;;;;;;;5018132;28;20236;-84
2022/10/03 03:29:23;;;;;;;4.77;3.07;;;;;;;;;;5053873;28;20241;-84
2022/10/03 03:31:55;;;;;;;4.00;2.50;;;;;;;;;;5055230;28;20651;-85
2022/10/03 03:34:26;;;;;;;11.07;3.70;;;;;;;;;;5054556;28;20592;-84
2022/10/03 03:37:00;;;;;;;6.40;3.20;;;;;;;;;;5054888;28;20186;-84
2022/10/03 03:39:40;;;;;;;4.93;3.60;;;;;;;;;;5054165;28;20234;-84
2022/10/03 03:42:14;;;;;;;10.97;4.70;;;;;;;;;;5055086;28;20194;-84
2022/10/03 03:44:48;;;;;;;5.37;4.87;;;;;;;;;;5054129;28;20238;-84
2022/10/03 03:47:27;;;;;;;7.80;4.40;;;;;;;;;;5054904;28;20194;-84
2022/10/03 03:50:07;;;;;;;14.23;4.50;;;;;;;;;;5034623;28;20235;-84
2022/10/03 03:52:44;;;;;;;6.43;5.93;;;;;;;;;;5034462;28;20191;-86
2022/10/03 03:55:29;;;;;;;4.93;4.53;;;;;;;;;;5034603;28;20206;-84
2022/10/03 03:58:12;;;;;;;4.50;4.10;;;;;;;;;;5033941;28;20233;-85
2022/10/03 04:00:47;;;;;;;5.67;4.30;;;;;;;;;;5034009;28;20230;-84
2022/10/03 04:03:21;;;;;;;5.20;4.20;;;;;;;;;;5033995;28;20230;-84
2022/10/03 04:06:04;;;;;;;13.17;4.20;;;;;;;;;;5034717;28;20215;-84
2022/10/03 04:08:41;;;;;;;6.63;3.80;;;;;;;;;;5031451;28;20308;-84
2022/10/03 04:11:17;;;;;;;3.97;3.67;;;;;;;;;;5034786;28;20234;-84
2022/10/03 04:14:08;;;;;;;4.10;3.70;;;;;;;;;;5033761;28;20771;-86
2022/10/03 04:19:38;;;;;;;4.73;4.33;;;;;;;;;;5033443;28;20361;-86
2022/10/03 04:22:14;;;;;;;4.60;4.20;;;;;;;;;;5034411;28;20213;-86
2022/10/03 04:25:07;;;;;;;6.93;5.30;;;;;;;;;;5033657;28;20230;-86
2022/10/03 04:28:06;;;;;;;5.40;4.90;;;;;;;;;;4987091;28;20222;-87
2022/10/03 04:30:38;;;;;;;6.67;5.20;;;;;;;;;;4953773;29;20225;-86
2022/10/03 04:33:14;;;;;;;4.90;4.40;;;;;;;;;;5018120;28;20698;-86
2022/10/03 04:35:56;;;;;;;7.20;4.97;;;;;;;;;;5034047;28;20190;-86
2022/10/03 04:38:28;;;;;;;6.10;4.60;;;;;;;;;;5030652;28;20257;-86
2022/10/03 04:41:00;;;;;;;5.20;4.70;;;;;;;;;;5033487;28;20227;-86
2022/10/03 04:43:34;;;;;;;5.17;4.07;;;;;;;;;;5033486;28;20238;-86
2022/10/03 04:46:09;;;;;;;6.23;4.27;;;;;;;;;;5050891;28;20209;-86
2022/10/03 04:48:38;;;;;;;4.90;4.40;;;;;;;;;;5053179;28;20234;-86
2022/10/03 04:51:09;;;;;;;5.00;4.50;;;;;;;;;;5053689;28;20229;-86
2022/10/03 04:53:44;;;;;;;5.40;4.83;;;;;;;;;;5052983;28;20341;-86
2022/10/03 04:56:17;;;;;;;8.87;5.90;;;;;;;;;;5053729;28;20186;-86
2022/10/03 04:58:51;;;;;;;6.77;5.23;;;;;;;;;;5052816;28;20246;-86
2022/10/03 05:01:23;;;;;;;5.33;4.73;;;;;;;;;;5053607;28;20217;-86
2022/10/03 05:03:54;;;;;;;4.73;4.30;;;;;;;;;;5052909;28;20303;-86
2022/10/03 05:06:26;;;;;;;4.67;4.17;;;;;;;;;;5053465;28;20221;-86
2022/10/03 05:08:58;;;;;;;9.60;4.87;;;;;;;;;;5052706;28;20238;-85
2022/10/03 05:11:32;;;;;;;5.23;4.73;;;;;;;;;;5053446;28;20241;-83
2022/10/03 05:14:04;;;;;;;5.20;4.70;;;;;;;;;;5052451;28;20237;-83
2022/10/03 05:16:42;;;;;;;7.37;5.27;;;;;;;;;;5053091;28;20182;-83
2022/10/03 05:19:18;;;;;;;6.27;5.47;;;;;;;;;;5052399;28;20252;-84
2022/10/03 05:21:48;;;;;;;7.17;5.27;;;;;;;;;;5052842;28;20583;-81
2022/10/03 05:24:19;;;;;;;10.23;5.80;;;;;;;;;;5052475;28;20240;-83
2022/10/03 05:26:49;;;;;;;7.33;5.43;;;;;;;;;;5052872;28;20666;-83
2022/10/03 05:29:20;;;;;;;5.40;4.90;;;;;;;;;;5052089;28;20238;-84
2022/10/03 05:31:55;;;;;;;5.70;4.83;;;;;;;;;;5052708;28;20206;-84
2022/10/03 05:34:26;;;;;;;4.90;4.43;;;;;;;;;;5052281;28;20270;-84
2022/10/03 05:36:59;;;;;;;7.77;5.47;;;;;;;;;;5052943;28;20187;-84
2022/10/03 05:39:29;;;;;;;10.50;6.27;;;;;;;;;;5052161;28;20238;-84
2022/10/03 05:42:04;;;;;;;8.30;6.40;;;;;;;;;;5052779;28;20210;-84
2022/10/03 05:44:39;;;;;;;7.37;5.97;;;;;;;;;;5052040;28;20241;-84
2022/10/03 05:47:43;;;;;;;12.50;7.20;;;;;;;;;;5052727;28;20236;-84
2022/10/03 05:50:07;;;;;;;12.37;8.50;;;;;;;;;;5051753;28;20268;-84
2022/10/03 05:52:44;;;;;;;13.73;7.70;;;;;;;;;;5051302;28;20617;-84
2022/10/03 05:55:18;;;;;;;16.07;8.90;;;;;;;;;;5052387;28;20189;-84
2022/10/03 05:58:04;;;;;;;14.27;10.37;;;;;;;;;;5051963;28;20194;-84
2022/10/03 06:00:38;;;;;;;16.47;10.27;;;;;;;;;;5052397;28;20641;-84
2022/10/03 06:03:35;;;;;;;16.83;10.17;;;;;;;;;;5052004;28;20233;-84
2022/10/03 06:06:09;;;;;;;14.40;9.70;;;;;;;;;;5010147;28;20593;-83
2022/10/03 06:08:51;;;;;;;13.83;9.57;;;;;;;;;;5043558;28;20236;-84
2022/10/03 06:11:27;;;;;;;13.47;9.27;;;;;;;;;;5052297;28;20194;-84
2022/10/03 06:14:08;;;;;;;14.60;9.77;;;;;;;;;;5051815;28;20267;-84
2022/10/03 06:16:41;;;;;;;17.97;9.47;;;;;;;;;;5052159;28;20194;-84
2022/10/03 06:19:14;;;;;;;14.73;9.97;;;;;;;;;;5051382;28;20249;-84
2022/10/03 06:22:10;;;;;;;23.97;11.57;;;;;;;;;;5053635;28;20194;-93
2022/10/03 06:24:54;;;;;;;20.67;11.80;;;;;;;;;;5052972;28;20234;-93
2022/10/03 06:27:33;;;;;;;24.27;12.10;;;;;;;;;;5053877;28;20592;-92
2022/10/03 06:30:10;;;;;;;24.37;11.07;;;;;;;;;;5053654;28;20283;-93
2022/10/03 06:33:04;;;;;;;22.30;13.00;;;;;;;;;;5047409;28;20205;-92
2022/10/03 06:35:52;;;;;;;23.07;11.63;;;;;;;;;;5033754;28;20198;-92
2022/10/03 06:38:35;;;;;;;25.90;14.80;;;;;;;;;;5031826;28;20234;-91
2022/10/03 06:41:20;;;;;;;24.10;13.27;;;;;;;;;;5031832;28;20238;-91
2022/10/03 06:43:55;;;;;;;28.13;14.17;;;;;;;;;;5032352;28;20234;-92
2022/10/03 06:46:37;;;;;;;31.73;14.87;;;;;;;;;;5032638;28;20214;-92
2022/10/03 06:49:18;;;;;;;35.37;16.40;;;;;;;;;;5031752;28;20242;-91
2022/10/03 06:52:00;;;;;;;32.97;16.07;;;;;;;;;;5032022;28;20973;-92
2022/10/03 06:54:42;;;;;;;32.03;15.53;;;;;;;;;;5019368;28;20242;-92
2022/10/03 06:57:27;;;;;;;34.60;16.10;;;;;;;;;;5033173;28;20213;-92
2022/10/03 07:00:01;;;;;;;37.97;16.17;;;;;;;;;;5051730;28;20237;-91
2022/10/03 07:02:47;;;;;;;40.57;17.50;;;;;;;;;;5052393;28;20642;-92
2022/10/03 07:05:35;;;;;;;41.43;17.20;;;;;;;;;;5055933;28;20218;-93
2022/10/03 07:08:29;;;;;;;34.00;15.40;;;;;;;;;;5055839;28;20234;-94
2022/10/03 07:11:05;;;;;;;32.83;15.70;;;;;;;;;;5056376;28;20233;-92
2022/10/03 07:14:08;;;;;;;36.23;16.90;;;;;;;;;;5055991;28;20236;-93
2022/10/03 07:16:49;;;;;;;48.63;19.10;;;;;;;;;;5056096;28;20213;-92
2022/10/03 07:19:26;;;;;;;50.30;18.13;;;;;;;;;;5055361;28;20241;-92
2022/10/03 07:22:12;;;;;;;44.80;19.83;;;;;;;;;;5056109;28;20661;-92
2022/10/03 07:24:54;;;;;;;59.53;21.87;;;;;;;;;;5055080;28;20595;-92
2022/10/03 07:27:30;;;;;;;66.50;23.90;;;;;;;;;;5053526;28;20226;-92
2022/10/03 07:30:04;;;;;;;71.40;25.57;;;;;;;;;;5055748;28;20237;-92
2022/10/03 07:32:43;;;;;;;67.67;25.17;;;;;;;;;;5055067;28;20233;-93
2022/10/03 07:41:22;;;;;;;76.53;27.03;;;;;;;;;;5053554;28;20208;-93
2022/10/03 07:44:00;;;;;;;76.33;25.83;;;;;;;;;;5056852;28;20234;-93
2022/10/03 07:46:47;;;;;;;73.07;26.13;;;;;;;;;;5056912;28;20221;-93
2022/10/03 07:49:24;;;;;;;78.40;26.00;;;;;;;;;;5054565;28;20605;-89
2022/10/03 07:51:59;;;;;;;71.67;27.17;;;;;;;;;;5055154;28;20570;-90
2022/10/03 07:54:42;;;;;;;62.33;24.63;;;;;;;;;;5054997;28;20261;-90
2022/10/03 07:57:36;;;;;;;65.50;25.17;;;;;;;;;;5056493;28;20209;-90
2022/10/03 08:00:09;;;;;;;57.07;23.07;;;;;;;;;;5038714;28;20722;-88
2022/10/03 08:02:51;;;;;;;57.43;23.97;;;;;;;;;;5057256;28;20198;-88
2022/10/03 08:05:24;;;;;;;59.53;24.73;;;;;;;;;;5036516;28;20213;-88
2022/10/03 08:08:08;;;;;;;61.97;24.93;;;;;;;;;;5036640;28;20273;-88
2022/10/03 08:10:54;;;;;;;55.60;24.00;;;;;;;;;;5034801;28;20297;-88
2022/10/03 08:13:29;;;;;;;60.87;24.50;;;;;;;;;;5049126;28;20226;-90
2022/10/03 08:16:04;;;;;;;52.60;23.90;;;;;;;;;;5050328;28;20190;-87
2022/10/03 08:18:51;;;;;;;53.37;23.37;;;;;;;;;;5056795;28;20229;-90
2022/10/03 08:21:27;;;;;;;49.73;23.70;;;;;;;;;;5038378;28;20206;-89
2022/10/03 08:24:09;;;;;;;55.00;23.37;;;;;;;;;;5051227;28;20237;-91
2022/10/03 08:26:54;;;;;;;52.33;23.63;;;;;;;;;;5057825;28;20597;-86
2022/10/03 08:29:30;;;;;;;48.20;20.13;;;;;;;;;;5056129;28;20241;-88
2022/10/03 08:32:10;;;;;;;42.77;21.43;;;;;;;;;;5057041;28;20236;-89
2022/10/03 08:35:01;;;;;;;41.53;19.03;;;;;;;;;;5046668;28;20582;-91
2022/10/03 08:38:01;;;;;;;41.07;17.87;;;;;;;;;;5015305;28;20207;-86
2022/10/03 08:40:52;;;;;;;38.73;16.20;;;;;;;;;;5045076;28;20714;-87
2022/10/03 08:43:43;;;;;;;18.60;12.37;;;;;;;;;;5054925;28;20774;-85
2022/10/03 08:46:18;;;;;;;19.80;11.47;;;;;;;;;;5044388;28;20218;-83
2022/10/03 08:48:50;;;;;;;20.80;11.00;;;;;;;;;;5053116;28;20240;-83
2022/10/03 08:51:31;;;;;;;16.90;9.47;;;;;;;;;;5047664;28;20203;-83
2022/10/03 08:54:06;;;;;;;16.17;8.93;;;;;;;;;;5032469;28;20252;-84
2022/10/03 08:56:41;;;;;;;16.37;9.00;;;;;;;;;;5033433;28;20194;-83
2022/10/03 08:59:23;;;;;;;17.17;8.53;;;;;;;;;;5033103;28;20249;-82
2022/10/03 09:02:09;;;;;;;13.53;8.93;;;;;;;;;;5031264;28;20269;-81
2022/10/03 09:04:54;;;;;;;11.57;7.77;;;;;;;;;;5049806;28;20283;-81
2022/10/03 09:07:27;;;;;;;17.40;7.90;;;;;;;;;;5042799;28;20248;-81
2022/10/03 09:10:12;;;;;;;12.83;7.60;;;;;;;;;;5052194;28;20292;-81
2022/10/03 09:13:14;;;;;;;10.53;7.63;;;;;;;;;;5051902;28;20201;-81
2022/10/03 09:15:56;;;;;;;11.03;6.70;;;;;;;;;;4991352;28;20299;-81
2022/10/03 09:18:36;;;;;;;11.53;6.87;;;;;;;;;;4978762;28;20799;-81
2022/10/03 09:21:27;;;;;;;11.40;6.93;;;;;;;;;;5030657;28;20238;-80
2022/10/03 09:24:03;;;;;;;13.87;6.23;;;;;;;;;;5052330;28;20242;-80
2022/10/03 09:26:48;;;;;;;12.47;6.87;;;;;;;;;;5052150;28;20236;-81
2022/10/03 09:29:36;;;;;;;11.07;6.73;;;;;;;;;;5051640;28;20732;-80
2022/10/03 09:32:25;;;;;;;11.50;6.30;;;;;;;;;;5046402;28;20202;-80
2022/10/03 09:35:10;;;;;;;11.57;6.10;;;;;;;;;;5031890;28;20643;-80
2022/10/03 09:37:50;;;;;;;9.70;5.70;;;;;;;;;;5031268;28;20202;-80
2022/10/03 09:40:47;;;;;;;8.77;5.13;;;;;;;;;;5032349;28;20317;-81
2022/10/03 09:43:33;;;;;;;9.87;6.03;;;;;;;;;;5032006;28;20265;-80
2022/10/03 09:46:19;;;;;;;6.43;5.07;;;;;;;;;;5036197;28;20194;-82
2022/10/03 09:49:04;;;;;;;7.60;5.50;;;;;;;;;;5051248;28;20248;-82
2022/10/03 09:51:35;;;;;;;9.07;5.83;;;;;;;;;;5048281;28;20198;-81
2022/10/03 09:54:21;;;;;;;9.87;5.50;;;;;;;;;;5047678;28;20747;-82
2022/10/03 09:56:57;;;;;;;8.97;5.30;;;;;;;;;;5051273;28;20694;-82
2022/10/03 09:59:33;;;;;;;7.23;5.43;;;;;;;;;;5048564;28;20660;-82
2022/10/03 10:02:06;;;;;;;8.03;4.90;;;;;;;;;;5049020;28;20242;-81
2022/10/03 10:04:41;;;;;;;7.80;4.65;;;;;;;;;;5050871;28;20233;-81
2022/10/03 10:07:30;;;;;;;8.63;4.97;;;;;;;;;;5051878;28;20226;-80
2022/10/03 10:10:08;;;;;;;7.22;3.38;;;;;;;;;;5051281;28;20254;-80
2022/10/03 10:13:02;;;;;;;8.23;4.18;;;;;;;;;;5051514;28;20201;-80
2022/10/03 10:15:48;;;;;;;7.07;3.63;;;;;;;;;;5032276;28;20198;-81
2022/10/03 10:18:31;;;;;;;9.85;4.43;;;;;;;;;;5049711;28;20736;-81
2022/10/03 10:21:26;;;;;;;4.25;3.40;;;;;;;;;;5051446;28;20312;-88
2022/10/03 10:24:00;;;;;;;8.45;3.70;;;;;;;;;;5057362;28;20241;-88
2022/10/03 10:26:40;;;;;;;3.17;2.58;;;;;;;;;;5041770;28;20197;-88
2022/10/03 10:29:30;;;;;;;3.67;2.40;;;;;;;;;;5048884;28;20299;-88
2022/10/03 10:32:21;;;;;;;6.68;3.03;;;;;;;;;;5052230;28;20563;-87
2022/10/03 10:35:06;;;;;;;6.15;2.90;;;;;;;;;;5050831;28;20229;-88
2022/10/03 10:37:43;;;;;;;5.32;2.35;;;;;;;;;;5050741;28;20273;-88
2022/10/03 10:40:25;;;;;;;3.50;1.73;;;;;;;;;;5041859;28;20213;-88
2022/10/03 10:43:08;;;;;;;5.80;2.70;;;;;;;;;;5028290;28;20593;-88
2022/10/03 10:45:47;;;;;;;4.65;2.63;;;;;;;;;;5053223;28;20190;-88
2022/10/03 10:48:41;;;;;;;4.15;2.13;;;;;;;;;;5051029;28;20313;-88
2022/10/03 10:51:22;;;;;;;8.45;2.50;;;;;;;;;;5051963;28;20730;-88
2022/10/03 10:54:07;;;;;;;3.17;2.15;;;;;;;;;;5052821;28;20234;-89
2022/10/03 10:56:53;;;;;;;4.93;2.70;;;;;;;;;;5053144;28;20229;-87
2022/10/03 10:59:35;;;;;;;8.13;2.88;;;;;;;;;;5048949;28;20256;-87
2022/10/03 11:02:16;;;;;;;5.72;2.55;;;;;;;;;;5050267;28;20216;-89
2022/10/03 11:05:13;;;;;;;6.43;2.63;;;;;;;;;;5048591;28;20231;-89
2022/10/03 11:08:13;;;;;;;4.45;2.65;;;;;;;;;;5052617;28;20613;-89
2022/10/03 11:10:51;;;;;;;9.57;2.65;;;;;;;;;;4966896;28;20245;-89
2022/10/03 11:13:50;;;;;;;3.10;2.17;;;;;;;;;;4958093;28;20236;-89
2022/10/03 11:16:36;;;;;;;4.45;2.40;;;;;;;;;;5031919;28;20238;-88
2022/10/03 11:19:19;;;;;;;4.55;2.13;;;;;;;;;;5050314;28;20283;-88
2022/10/03 11:22:11;;;;;;;4.82;2.15;;;;;;;;;;5048764;28;20960;-89
2022/10/03 11:24:56;;;;;;;4.70;2.20;;;;;;;;;;5048408;28;20225;-90
2022/10/03 11:27:39;;;;;;;6.65;2.42;;;;;;;;;;5051126;28;20214;-90
2022/10/03 11:30:24;;;;;;;5.32;2.70;;;;;;;;;;5051461;28;20234;-92
2022/10/03 11:33:08;;;;;;;4.55;2.53;;;;;;;;;;5041576;28;20233;-92
2022/10/03 11:35:55;;;;;;;4.90;2.03;;;;;;;;;;5051554;28;20202;-89
2022/10/03 11:38:24;;;;;;;3.42;2.47;;;;;;;;;;5052074;28;20230;-91
2022/10/03 11:40:59;;;;;;;6.60;3.50;;;;;;;;;;5051738;28;20218;-89
2022/10/03 11:43:59;;;;;;;5.90;2.75;;;;;;;;;;5050982;28;20305;-88
2022/10/03 11:46:35;;;;;;;4.95;2.00;;;;;;;;;;5045805;28;20194;-89
2022/10/03 11:49:06;;;;;;;3.45;2.20;;;;;;;;;;5040697;28;20695;-89
2022/10/03 11:51:38;;;;;;;5.68;2.40;;;;;;;;;;5054278;28;20198;-88
2022/10/03 11:54:10;;;;;;;3.83;2.47;;;;;;;;;;5052581;28;20234;-89
2022/10/03 11:56:40;;;;;;;8.50;2.70;;;;;;;;;;5054812;28;20560;-88
2022/10/03 11:59:17;;;;;;;4.93;2.45;;;;;;;;;;5054390;28;20321;-89
2022/10/03 12:01:57;;;;;;;6.20;2.53;;;;;;;;;;5054156;28;20244;-88
2022/10/03 12:04:27;;;;;;;8.35;2.60;;;;;;;;;;5053469;28;20336;-88
2022/10/03 12:10:02;;;;;;;4.72;2.63;;;;;;;;;;5034418;28;20257;-88
2022/10/03 12:12:34;;;;;;;5.25;2.58;;;;;;;;;;5054764;28;20240;-88
2022/10/03 12:15:04;;;;;;;4.78;2.95;;;;;;;;;;5033835;28;20218;-88
2022/10/03 12:17:34;;;;;;;5.32;2.35;;;;;;;;;;5048065;28;20190;-87
2022/10/03 12:20:05;;;;;;;4.45;2.60;;;;;;;;;;5053791;28;20725;-88
2022/10/03 12:22:47;;;;;;;6.03;2.85;;;;;;;;;;5053425;28;20205;-87
2022/10/03 12:25:22;;;;;;;4.20;2.20;;;;;;;;;;5053773;28;20194;-88
2022/10/03 12:27:51;;;;;;;5.82;2.53;;;;;;;;;;5052927;28;20720;-88
2022/10/03 12:30:20;;;;;;;3.63;3.00;;;;;;;;;;5054061;28;20233;-88
2022/10/03 12:32:57;;;;;;;5.35;2.95;;;;;;;;;;5052917;28;20210;-88
2022/10/03 12:35:32;;;;;;;3.50;2.80;;;;;;;;;;5053717;28;20669;-89
2022/10/03 12:38:14;;;;;;;5.57;2.85;;;;;;;;;;5054761;28;20305;-88
2022/10/03 12:40:44;;;;;;;6.63;2.70;;;;;;;;;;5045971;28;20238;-88
2022/10/03 12:43:23;;;;;;;5.22;3.38;;;;;;;;;;5053492;28;20230;-88
2022/10/03 12:45:53;;;;;;;5.07;2.63;;;;;;;;;;5054103;28;20210;-88
2022/10/03 12:48:32;;;;;;;7.55;2.83;;;;;;;;;;5053635;28;20603;-88
2022/10/03 12:51:03;;;;;;;7.00;3.13;;;;;;;;;;5051389;28;20693;-90
2022/10/03 12:53:37;;;;;;;3.47;2.28;;;;;;;;;;5054172;28;20263;-89
2022/10/03 12:56:12;;;;;;;4.97;2.50;;;;;;;;;;5060145;28;20758;-89
2022/10/03 12:58:45;;;;;;;4.90;2.70;;;;;;;;;;5054224;28;20238;-82
2022/10/03 13:01:17;;;;;;;5.20;2.60;;;;;;;;;;5032743;28;20203;-83
2022/10/03 13:03:50;;;;;;;5.10;2.63;;;;;;;;;;5032513;28;20238;-82
2022/10/03 13:06:45;;;;;;;3.97;2.60;;;;;;;;;;5033244;28;20198;-82
2022/10/03 13:09:19;;;;;;;4.30;2.38;;;;;;;;;;5032156;28;20242;-82
2022/10/03 13:11:55;;;;;;;4.20;2.80;;;;;;;;;;5032853;28;20199;-82
2022/10/03 13:14:28;;;;;;;2.78;2.03;;;;;;;;;;5032419;28;20230;-82
2022/10/03 13:16:59;;;;;;;5.90;2.83;;;;;;;;;;5032695;28;20195;-83
2022/10/03 13:19:28;;;;;;;6.45;2.53;;;;;;;;;;5031858;28;20242;-83
2022/10/03 13:22:02;;;;;;;6.88;2.45;;;;;;;;;;5032816;28;20210;-82
2022/10/03 13:24:33;;;;;;;6.38;2.50;;;;;;;;;;5032136;28;20317;-86
2022/10/03 13:27:17;;;;;;;3.75;2.30;;;;;;;;;;5033032;28;20195;-83
2022/10/03 13:29:47;;;;;;;3.38;2.60;;;;;;;;;;5042033;28;20309;-83
2022/10/03 13:32:20;;;;;;;4.00;2.40;;;;;;;;;;5052516;28;20236;-83
2022/10/03 13:35:57;;;;;;;3.35;2.38;;;;;;;;;;5051926;28;20237;-83
2022/10/03 13:37:56;;;;;;;6.70;2.53;;;;;;;;;;5051280;28;20198;-82
2022/10/03 13:40:24;;;;;;;4.63;2.78;;;;;;;;;;5052209;28;20602;-82
2022/10/03 13:42:53;;;;;;;4.55;2.40;;;;;;;;;;5051593;28;20233;-83
2022/10/03 13:45:24;;;;;;;4.47;2.60;;;;;;;;;;5052283;28;20186;-83
2022/10/03 13:47:53;;;;;;;5.18;2.33;;;;;;;;;;5050555;28;20663;-85
2022/10/03 13:50:25;;;;;;;4.80;2.33;;;;;;;;;;5051587;28;20225;-81
2022/10/03 13:52:56;;;;;;;3.65;1.90;;;;;;;;;;5048411;28;20828;-82
2022/10/03 13:55:38;;;;;;;4.85;2.60;;;;;;;;;;5051161;28;20572;-82
2022/10/03 13:58:27;;;;;;;4.47;2.33;;;;;;;;;;5046405;28;20233;-83
2022/10/03 14:01:00;;;;;;;3.58;2.30;;;;;;;;;;5046773;28;20230;-83
2022/10/03 14:03:32;;;;;;;6.13;2.90;;;;;;;;;;5050563;28;20241;-82
2022/10/03 14:06:16;;;;;;;4.85;2.90;;;;;;;;;;5050116;28;20206;-81
2022/10/03 14:08:55;;;;;;;7.78;3.42;;;;;;;;;;5040191;28;20229;-81
2022/10/03 14:11:25;;;;;;;6.25;2.78;;;;;;;;;;5040490;28;20198;-82
2022/10/03 14:14:05;;;;;;;4.05;2.47;;;;;;;;;;5042766;28;20767;-82
2022/10/03 14:16:35;;;;;;;3.92;2.55;;;;;;;;;;5040548;28;20205;-82
2022/10/03 14:19:05;;;;;;;6.90;2.90;;;;;;;;;;5050428;28;20241;-82
2022/10/03 14:21:40;;;;;;;4.22;2.63;;;;;;;;;;5050335;28;20256;-82
2022/10/03 14:24:15;;;;;;;3.72;2.50;;;;;;;;;;5050393;28;20221;-82
2022/10/03 14:26:45;;;;;;;3.10;2.28;;;;;;;;;;5049075;28;20194;-81
2022/10/03 14:29:19;;;;;;;3.40;2.53;;;;;;;;;;5050247;28;20590;-81
2022/10/03 14:31:51;;;;;;;4.40;2.50;;;;;;;;;;5051397;28;20210;-82
2022/10/03 14:34:24;;;;;;;3.72;2.42;;;;;;;;;;5050725;28;20317;-82
2022/10/03 14:36:58;;;;;;;3.45;2.55;;;;;;;;;;5051516;28;20194;-83
2022/10/03 14:39:35;;;;;;;4.13;2.67;;;;;;;;;;5050645;28;20587;-85
2022/10/03 14:42:13;;;;;;;4.53;2.50;;;;;;;;;;5052057;28;20220;-89
2022/10/03 14:44:42;;;;;;;4.07;2.60;;;;;;;;;;5050276;28;20229;-83
2022/10/03 14:47:10;;;;;;;6.25;2.75;;;;;;;;;;5050420;28;20230;-82
2022/10/03 14:49:39;;;;;;;5.55;2.63;;;;;;;;;;5048564;28;20237;-82
2022/10/03 14:52:09;;;;;;;3.25;2.60;;;;;;;;;;5049570;28;20678;-83
2022/10/03 14:54:38;;;;;;;5.78;2.90;;;;;;;;;;5048878;28;20851;-82
2022/10/03 14:57:14;;;;;;;5.95;2.80;;;;;;;;;;5049414;28;20245;-82
2022/10/03 14:59:41;;;;;;;3.38;2.55;;;;;;;;;;5048563;28;20237;-83
2022/10/03 15:02:20;;;;;;;7.22;2.90;;;;;;;;;;5049918;28;20218;-83
2022/10/03 15:04:48;;;;;;;5.50;3.03;;;;;;;;;;5050865;28;20434;-83
2022/10/03 15:07:17;;;;;;;5.30;3.20;;;;;;;;;;5051412;28;20228;-82
2022/10/03 15:09:49;;;;;;;3.60;2.58;;;;;;;;;;5050375;28;20753;-83
2022/10/03 15:12:19;;;;;;;7.05;2.97;;;;;;;;;;5051422;28;20191;-84
2022/10/03 15:14:48;;;;;;;5.70;3.10;;;;;;;;;;5050728;28;20238;-82
2022/10/03 15:17:18;;;;;;;6.30;2.88;;;;;;;;;;5051398;28;20217;-83
2022/10/03 15:19:47;;;;;;;3.25;2.83;;;;;;;;;;5050389;28;20737;-83
2022/10/03 15:22:22;;;;;;;5.32;3.08;;;;;;;;;;5051395;28;20212;-83
2022/10/03 15:24:49;;;;;;;5.50;3.00;;;;;;;;;;5053111;28;20257;-82
2022/10/03 15:27:20;;;;;;;4.60;3.20;;;;;;;;;;5054832;28;20198;-82
2022/10/03 15:29:51;;;;;;;3.00;2.70;;;;;;;;;;5054250;28;21047;-82
2022/10/03 15:32:21;;;;;;;4.68;3.13;;;;;;;;;;5055103;28;20225;-83
2022/10/03 15:34:49;;;;;;;9.15;3.60;;;;;;;;;;5054621;28;20261;-83
2022/10/03 15:37:18;;;;;;;10.15;3.75;;;;;;;;;;5054891;28;20213;-83
2022/10/03 15:39:47;;;;;;;7.07;3.13;;;;;;;;;;5054637;28;20710;-83
2022/10/03 15:42:24;;;;;;;5.57;3.45;;;;;;;;;;5054483;28;20644;-82
2022/10/03 15:44:53;;;;;;;3.67;3.13;;;;;;;;;;5053962;28;20237;-82
2022/10/03 15:47:22;;;;;;;7.85;3.58;;;;;;;;;;5054633;28;20209;-82
2022/10/03 15:49:53;;;;;;;6.40;3.58;;;;;;;;;;5053991;28;20241;-82
2022/10/03 15:52:22;;;;;;;6.15;3.88;;;;;;;;;;5054579;28;20204;-82